PWSweather.com
Personal Weather Stations
Station Observations
MARRWS
Allansford VictoriaAU 3277

Allansford VictoriaAU 3277

Lat: -38.4003683814149, Lon: 142.569826841354

Elevation: 36

Station Type: Fine Offset X7062

http://home.vicnet.net.au/~marr/Weather/

Latest ConditionsUpdated 5:50:01 PM GMT+10:10 Tuesday, May 24, 2016
Currently Today's Max Today's Min Today's Average
Temperature 60.6°F15.9°C 71.6°F22.0°C 54.7°F12.6°C 58.1°F14.5°C
Dew Point 51.2°F10.7°C 53.9°F12.2°C 50.0°F10.0°C 53.1°F11.7°C
Winds Calm Calm 6.1 mph SW9.8 kmh SW - 5.0 mph 8.0 kmh
Wind Gusts -- 13.6 mph21.9 kmh - -
Humidity 71% 97% 47% 86%
Pressure 30.21 in1023.0 mb 30.33 in1027.1 mb 30.20 in1022.7 mb -
Hour Temp Dew Point Humidity Winds Wind Gusts Pressure Precip Precip Rate Daily Precip Total
05:50 PM 60.6°F15.9°C 51.2°F10.7°C 71% Calm Calm -- 30.21 in1023.0 mb 0.00 in0.0 mm 0.00 in0.0 mm 0.00 in0.0 mm
05:40 PM 60.6°F15.9°C 51.2°F10.7°C 71% Calm Calm -- 30.21 in1023.0 mb 0.00 in0.0 mm 0.00 in0.0 mm 0.00 in0.0 mm
05:30 PM 60.6°F15.9°C 51.2°F10.7°C 71% Calm Calm -- 30.22 in1023.4 mb 0.00 in0.0 mm 0.00 in0.0 mm 0.00 in0.0 mm
05:20 PM 63.9°F17.7°C 50.6°F10.3°C 62% Calm Calm -- 30.21 in1023.0 mb 0.00 in0.0 mm 0.00 in0.0 mm 0.00 in0.0 mm
05:10 PM 63.9°F17.7°C 50.6°F10.3°C 62% Calm Calm -- 30.21 in1023.0 mb 0.00 in0.0 mm 0.00 in0.0 mm 0.00 in0.0 mm
05:00 PM 63.9°F17.7°C 50.6°F10.3°C 62% Calm Calm -- 30.21 in1023.0 mb 0.00 in0.0 mm 0.00 in0.0 mm 0.00 in0.0 mm
04:50 PM 63.9°F17.7°C 50.6°F10.3°C 62% Calm Calm -- 30.21 in1023.0 mb 0.00 in0.0 mm 0.00 in0.0 mm 0.00 in0.0 mm
04:40 PM 68.2°F20.1°C 52.4°F11.3°C 57% 2.2 mph W3.5 kmh W 3.1 mph5.0 kmh 30.20 in1022.7 mb 0.00 in0.0 mm 0.00 in0.0 mm 0.00 in0.0 mm
04:30 PM 68.2°F20.1°C 52.4°F11.3°C 57% 2.2 mph W3.5 kmh W 3.1 mph5.0 kmh 30.21 in1023.0 mb 0.00 in0.0 mm 0.00 in0.0 mm 0.00 in0.0 mm
04:20 PM 68.2°F20.1°C 52.4°F11.3°C 57% 1.8 mph W2.9 kmh W 3.1 mph5.0 kmh 30.20 in1022.7 mb 0.00 in0.0 mm 0.00 in0.0 mm 0.00 in0.0 mm
04:10 PM 66.9°F19.4°C 53.1°F11.7°C 61% 0.8 mph W1.3 kmh W 2.2 mph3.5 kmh 30.20 in1022.7 mb 0.00 in0.0 mm 0.00 in0.0 mm 0.00 in0.0 mm
04:00 PM 64.9°F18.3°C 51.6°F10.9°C 62% 1.6 mph WSW2.6 kmh WSW 3.8 mph6.1 kmh 30.20 in1022.7 mb 0.00 in0.0 mm 0.00 in0.0 mm 0.00 in0.0 mm
03:50 PM 65.3°F18.5°C 51.1°F10.6°C 60% 1.4 mph WSW2.3 kmh WSW 3.8 mph6.1 kmh 30.20 in1022.7 mb 0.00 in0.0 mm 0.00 in0.0 mm 0.00 in0.0 mm
03:40 PM 69.6°F20.9°C 51.8°F11.0°C 53% 0.9 mph W1.4 kmh W 3.8 mph6.1 kmh 30.21 in1023.0 mb 0.00 in0.0 mm 0.00 in0.0 mm 0.00 in0.0 mm
03:30 PM 67.1°F19.5°C 53.2°F11.8°C 61% 2.1 mph W3.4 kmh W 5.4 mph8.7 kmh 30.21 in1023.0 mb 0.00 in0.0 mm 0.00 in0.0 mm 0.00 in0.0 mm
03:20 PM 67.1°F19.5°C 51.4°F10.8°C 57% 2.1 mph WSW3.4 kmh WSW 5.4 mph8.7 kmh 30.21 in1023.0 mb 0.00 in0.0 mm 0.00 in0.0 mm 0.00 in0.0 mm
03:10 PM 68.7°F20.4°C 50.4°F10.2°C 52% 2.9 mph SW4.7 kmh SW 6.0 mph9.7 kmh 30.21 in1023.0 mb 0.00 in0.0 mm 0.00 in0.0 mm 0.00 in0.0 mm
03:00 PM 71.6°F22.0°C 50.9°F10.5°C 48% 2.5 mph SW4.0 kmh SW 6.9 mph11.1 kmh 30.21 in1023.0 mb 0.00 in0.0 mm 0.00 in0.0 mm 0.00 in0.0 mm
02:50 PM 70.0°F21.1°C 51.6°F10.9°C 52% 3.2 mph WNW5.1 kmh WNW 8.3 mph13.4 kmh 30.21 in1023.0 mb 0.00 in0.0 mm 0.00 in0.0 mm 0.00 in0.0 mm
02:40 PM 69.6°F20.9°C 51.2°F10.7°C 52% 3.6 mph W5.8 kmh W 7.6 mph12.2 kmh 30.21 in1023.0 mb 0.00 in0.0 mm 0.00 in0.0 mm 0.00 in0.0 mm
02:30 PM 70.3°F21.3°C 50.3°F10.2°C 49% 3.4 mph WSW5.5 kmh WSW 6.9 mph11.1 kmh 30.22 in1023.4 mb 0.00 in0.0 mm 0.00 in0.0 mm 0.00 in0.0 mm
02:20 PM 70.9°F21.6°C 50.8°F10.4°C 49% 3.0 mph SW4.8 kmh SW 6.0 mph9.7 kmh 30.22 in1023.4 mb 0.00 in0.0 mm 0.00 in0.0 mm 0.00 in0.0 mm
02:10 PM 71.2°F21.8°C 50.6°F10.3°C 48% 2.6 mph WSW4.2 kmh WSW 6.0 mph9.7 kmh 30.22 in1023.4 mb 0.00 in0.0 mm 0.00 in0.0 mm 0.00 in0.0 mm
02:00 PM 69.1°F20.6°C 50.2°F10.1°C 51% 3.4 mph WNW5.5 kmh WNW 6.0 mph9.7 kmh 30.22 in1023.4 mb 0.00 in0.0 mm 0.00 in0.0 mm 0.00 in0.0 mm
01:50 PM 68.5°F20.3°C 50.2°F10.1°C 52% 2.5 mph SW4.0 kmh SW 5.4 mph8.7 kmh 30.23 in1023.7 mb 0.00 in0.0 mm 0.00 in0.0 mm 0.00 in0.0 mm
01:40 PM 71.2°F21.8°C 50.0°F10.0°C 47% 3.1 mph SW5.0 kmh SW 5.4 mph8.7 kmh 30.23 in1023.7 mb 0.00 in0.0 mm 0.00 in0.0 mm 0.00 in0.0 mm
01:30 PM 71.2°F21.8°C 50.0°F10.0°C 47% 3.1 mph SW5.0 kmh SW 5.4 mph8.7 kmh 30.23 in1023.7 mb 0.00 in0.0 mm 0.00 in0.0 mm 0.00 in0.0 mm
01:20 PM 71.2°F21.8°C 50.0°F10.0°C 47% 3.1 mph SW5.0 kmh SW 5.4 mph8.7 kmh 30.24 in1024.0 mb 0.00 in0.0 mm 0.00 in0.0 mm 0.00 in0.0 mm
01:10 PM 71.2°F21.8°C 50.0°F10.0°C 47% 3.1 mph SW5.0 kmh SW 5.4 mph8.7 kmh 30.24 in1024.0 mb 0.00 in0.0 mm 0.00 in0.0 mm 0.00 in0.0 mm
01:00 PM 54.7°F12.6°C 53.9°F12.2°C 97% 6.1 mph SW9.8 kmh SW 13.6 mph21.9 kmh 30.24 in1024.0 mb 0.00 in0.0 mm 0.00 in0.0 mm 0.00 in0.0 mm
12:50 PM 54.7°F12.6°C 53.9°F12.2°C 97% 6.1 mph SW9.8 kmh SW 13.6 mph21.9 kmh 30.25 in1024.4 mb 0.00 in0.0 mm 0.00 in0.0 mm 0.00 in0.0 mm
12:40 PM 54.7°F12.6°C 53.9°F12.2°C 97% 6.1 mph SW9.8 kmh SW 13.6 mph21.9 kmh 30.25 in1024.4 mb 0.00 in0.0 mm 0.00 in0.0 mm 0.00 in0.0 mm
12:30 PM 54.7°F12.6°C 53.9°F12.2°C 97% 6.1 mph SW9.8 kmh SW 13.6 mph21.9 kmh 30.26 in1024.7 mb 0.00 in0.0 mm 0.00 in0.0 mm 0.00 in0.0 mm
12:20 PM 54.7°F12.6°C 53.9°F12.2°C 97% 6.1 mph SW9.8 kmh SW 13.6 mph21.9 kmh 30.26 in1024.7 mb 0.00 in0.0 mm 0.00 in0.0 mm 0.00 in0.0 mm
12:10 PM 54.7°F12.6°C 53.9°F12.2°C 97% 6.1 mph SW9.8 kmh SW 13.6 mph21.9 kmh 30.27 in1025.1 mb 0.00 in0.0 mm 0.00 in0.0 mm 0.00 in0.0 mm
12:00 PM 54.7°F12.6°C 53.9°F12.2°C 97% 6.1 mph SW9.8 kmh SW 13.6 mph21.9 kmh 30.27 in1025.1 mb 0.00 in0.0 mm 0.00 in0.0 mm 0.00 in0.0 mm
11:50 AM 54.7°F12.6°C 53.9°F12.2°C 97% 6.1 mph SW9.8 kmh SW 13.6 mph21.9 kmh 30.27 in1025.1 mb 0.00 in0.0 mm 0.00 in0.0 mm 0.00 in0.0 mm
11:40 AM 54.7°F12.6°C 53.9°F12.2°C 97% 6.1 mph SW9.8 kmh SW 13.6 mph21.9 kmh 30.28 in1025.4 mb 0.00 in0.0 mm 0.00 in0.0 mm 0.00 in0.0 mm
11:30 AM 54.7°F12.6°C 53.9°F12.2°C 97% 6.1 mph SW9.8 kmh SW 13.6 mph21.9 kmh 30.29 in1025.7 mb 0.00 in0.0 mm 0.00 in0.0 mm 0.00 in0.0 mm
11:20 AM 54.7°F12.6°C 53.9°F12.2°C 97% 6.1 mph SW9.8 kmh SW 13.6 mph21.9 kmh 30.29 in1025.7 mb 0.00 in0.0 mm 0.00 in0.0 mm 0.00 in0.0 mm
11:10 AM 54.7°F12.6°C 53.9°F12.2°C 97% 6.1 mph SW9.8 kmh SW 13.6 mph21.9 kmh 30.30 in1026.1 mb 0.00 in0.0 mm 0.00 in0.0 mm 0.00 in0.0 mm
11:00 AM 54.7°F12.6°C 53.9°F12.2°C 97% 6.1 mph SW9.8 kmh SW 13.6 mph21.9 kmh 30.31 in1026.4 mb 0.00 in0.0 mm 0.00 in0.0 mm 0.00 in0.0 mm
10:50 AM 54.7°F12.6°C 53.9°F12.2°C 97% 6.1 mph SW9.8 kmh SW 13.6 mph21.9 kmh 30.32 in1026.8 mb 0.00 in0.0 mm 0.00 in0.0 mm 0.00 in0.0 mm
10:40 AM 54.7°F12.6°C 53.9°F12.2°C 97% 6.1 mph SW9.8 kmh SW 13.6 mph21.9 kmh 30.32 in1026.8 mb 0.00 in0.0 mm 0.00 in0.0 mm 0.00 in0.0 mm
10:30 AM 54.7°F12.6°C 53.9°F12.2°C 97% 6.1 mph SW9.8 kmh SW 13.6 mph21.9 kmh 30.31 in1026.4 mb 0.00 in0.0 mm 0.00 in0.0 mm 0.00 in0.0 mm
10:20 AM 54.7°F12.6°C 53.9°F12.2°C 97% 6.1 mph SW9.8 kmh SW 13.6 mph21.9 kmh 30.31 in1026.4 mb 0.00 in0.0 mm 0.00 in0.0 mm 0.00 in0.0 mm
10:10 AM 54.7°F12.6°C 53.9°F12.2°C 97% 6.1 mph SW9.8 kmh SW 13.6 mph21.9 kmh 30.32 in1026.8 mb 0.00 in0.0 mm 0.00 in0.0 mm 0.00 in0.0 mm
10:00 AM 54.7°F12.6°C 53.9°F12.2°C 97% 6.1 mph SW9.8 kmh SW 13.6 mph21.9 kmh 30.32 in1026.8 mb 0.00 in0.0 mm 0.00 in0.0 mm 0.00 in0.0 mm
09:50 AM 54.7°F12.6°C 53.9°F12.2°C 97% 6.1 mph SW9.8 kmh SW 13.6 mph21.9 kmh 30.32 in1026.8 mb 0.00 in0.0 mm 0.00 in0.0 mm 0.00 in0.0 mm
09:40 AM 54.7°F12.6°C 53.9°F12.2°C 97% 6.1 mph SW9.8 kmh SW 13.6 mph21.9 kmh 30.33 in1027.1 mb 0.00 in0.0 mm 0.00 in0.0 mm 0.00 in0.0 mm
09:30 AM 54.7°F12.6°C 53.9°F12.2°C 97% 6.1 mph SW9.8 kmh SW 13.6 mph21.9 kmh 30.32 in1026.8 mb 0.00 in0.0 mm 0.00 in0.0 mm 0.00 in0.0 mm
09:20 AM 54.7°F12.6°C 53.9°F12.2°C 97% 6.1 mph SW9.8 kmh SW 13.6 mph21.9 kmh 30.32 in1026.8 mb 0.00 in0.0 mm 0.00 in0.0 mm 0.00 in0.0 mm
09:10 AM 54.7°F12.6°C 53.9°F12.2°C 97% 6.1 mph SW9.8 kmh SW 13.6 mph21.9 kmh 30.32 in1026.8 mb 0.00 in0.0 mm 0.00 in0.0 mm 0.00 in0.0 mm
09:00 AM 54.7°F12.6°C 53.9°F12.2°C 97% 6.1 mph SW9.8 kmh SW 13.6 mph21.9 kmh 30.31 in1026.4 mb 0.00 in0.0 mm 0.00 in0.0 mm 0.00 in0.0 mm
08:50 AM 54.7°F12.6°C 53.9°F12.2°C 97% 6.1 mph SW9.8 kmh SW 13.6 mph21.9 kmh 30.31 in1026.4 mb 0.00 in0.0 mm 0.00 in0.0 mm 0.00 in0.0 mm
08:40 AM 54.7°F12.6°C 53.9°F12.2°C 97% 6.1 mph SW9.8 kmh SW 13.6 mph21.9 kmh 30.31 in1026.4 mb 0.00 in0.0 mm 0.00 in0.0 mm 0.00 in0.0 mm
08:30 AM 54.7°F12.6°C 53.9°F12.2°C 97% 6.1 mph SW9.8 kmh SW 13.6 mph21.9 kmh 30.31 in1026.4 mb 0.00 in0.0 mm 0.00 in0.0 mm 0.00 in0.0 mm
08:20 AM 54.7°F12.6°C 53.9°F12.2°C 97% 6.1 mph SW9.8 kmh SW 13.6 mph21.9 kmh 30.30 in1026.1 mb 0.00 in0.0 mm 0.00 in0.0 mm 0.00 in0.0 mm
08:10 AM 54.7°F12.6°C 53.9°F12.2°C 97% 6.1 mph SW9.8 kmh SW 13.6 mph21.9 kmh 30.30 in1026.1 mb 0.00 in0.0 mm 0.00 in0.0 mm 0.00 in0.0 mm
08:00 AM 54.7°F12.6°C 53.9°F12.2°C 97% 6.1 mph SW9.8 kmh SW 13.6 mph21.9 kmh 30.30 in1026.1 mb 0.00 in0.0 mm 0.00 in0.0 mm 0.00 in0.0 mm
07:50 AM 54.7°F12.6°C 53.9°F12.2°C 97% 6.1 mph SW9.8 kmh SW 13.6 mph21.9 kmh 30.30 in1026.1 mb 0.00 in0.0 mm 0.00 in0.0 mm 0.00 in0.0 mm
07:40 AM 54.7°F12.6°C 53.9°F12.2°C 97% 6.1 mph SW9.8 kmh SW 13.6 mph21.9 kmh 30.30 in1026.1 mb 0.00 in0.0 mm 0.00 in0.0 mm 0.00 in0.0 mm
07:30 AM 54.7°F12.6°C 53.9°F12.2°C 97% 6.1 mph SW9.8 kmh SW 13.6 mph21.9 kmh 30.30 in1026.1 mb 0.00 in0.0 mm 0.00 in0.0 mm 0.00 in0.0 mm
07:20 AM 54.7°F12.6°C 53.9°F12.2°C 97% 6.1 mph SW9.8 kmh SW 13.6 mph21.9 kmh 30.29 in1025.7 mb 0.00 in0.0 mm 0.00 in0.0 mm 0.00 in0.0 mm
07:10 AM 54.7°F12.6°C 53.9°F12.2°C 97% 6.1 mph SW9.8 kmh SW 13.6 mph21.9 kmh 30.29 in1025.7 mb 0.00 in0.0 mm 0.00 in0.0 mm 0.00 in0.0 mm
07:00 AM 54.7°F12.6°C 53.9°F12.2°C 97% 6.1 mph SW9.8 kmh SW 13.6 mph21.9 kmh 30.29 in1025.7 mb 0.00 in0.0 mm 0.00 in0.0 mm 0.00 in0.0 mm
06:50 AM 54.7°F12.6°C 53.9°F12.2°C 97% 6.1 mph SW9.8 kmh SW 13.6 mph21.9 kmh 30.28 in1025.4 mb 0.00 in0.0 mm 0.00 in0.0 mm 0.00 in0.0 mm
06:40 AM 54.7°F12.6°C 53.9°F12.2°C 97% 6.1 mph SW9.8 kmh SW 13.6 mph21.9 kmh 30.28 in1025.4 mb 0.00 in0.0 mm 0.00 in0.0 mm 0.00 in0.0 mm
06:30 AM 54.7°F12.6°C 53.9°F12.2°C 97% 6.1 mph SW9.8 kmh SW 13.6 mph21.9 kmh 30.27 in1025.1 mb 0.00 in0.0 mm 0.00 in0.0 mm 0.00 in0.0 mm
06:20 AM 54.7°F12.6°C 53.9°F12.2°C 97% 6.1 mph SW9.8 kmh SW 13.6 mph21.9 kmh 30.27 in1025.1 mb 0.00 in0.0 mm 0.00 in0.0 mm 0.00 in0.0 mm
06:10 AM 54.7°F12.6°C 53.9°F12.2°C 97% 6.1 mph SW9.8 kmh SW 13.6 mph21.9 kmh 30.27 in1025.1 mb 0.00 in0.0 mm 0.00 in0.0 mm 0.00 in0.0 mm
06:00 AM 54.7°F12.6°C 53.9°F12.2°C 97% 6.1 mph SW9.8 kmh SW 13.6 mph21.9 kmh 30.27 in1025.1 mb 0.00 in0.0 mm 0.00 in0.0 mm 0.00 in0.0 mm
05:50 AM 54.7°F12.6°C 53.9°F12.2°C 97% 6.1 mph SW9.8 kmh SW 13.6 mph21.9 kmh 30.26 in1024.7 mb 0.00 in0.0 mm 0.00 in0.0 mm 0.00 in0.0 mm
05:40 AM 54.7°F12.6°C 53.9°F12.2°C 97% 6.1 mph SW9.8 kmh SW 13.6 mph21.9 kmh 30.27 in1025.1 mb 0.00 in0.0 mm 0.00 in0.0 mm 0.00 in0.0 mm
05:30 AM 54.7°F12.6°C 53.9°F12.2°C 97% 6.1 mph SW9.8 kmh SW 13.6 mph21.9 kmh 30.27 in1025.1 mb 0.00 in0.0 mm 0.00 in0.0 mm 0.00 in0.0 mm
05:20 AM 54.7°F12.6°C 53.9°F12.2°C 97% 6.1 mph SW9.8 kmh SW 13.6 mph21.9 kmh 30.26 in1024.7 mb 0.00 in0.0 mm 0.00 in0.0 mm 0.00 in0.0 mm
05:10 AM 54.7°F12.6°C 53.9°F12.2°C 97% 6.1 mph SW9.8 kmh SW 13.6 mph21.9 kmh 30.26 in1024.7 mb 0.00 in0.0 mm 0.00 in0.0 mm 0.00 in0.0 mm
05:00 AM 54.7°F12.6°C 53.9°F12.2°C 97% 6.1 mph SW9.8 kmh SW 13.6 mph21.9 kmh 30.26 in1024.7 mb 0.00 in0.0 mm 0.00 in0.0 mm 0.00 in0.0 mm
04:50 AM 54.7°F12.6°C 53.9°F12.2°C 97% 6.1 mph SW9.8 kmh SW 13.6 mph21.9 kmh 30.26 in1024.7 mb 0.00 in0.0 mm 0.00 in0.0 mm 0.00 in0.0 mm
04:40 AM 54.7°F12.6°C 53.9°F12.2°C 97% 6.1 mph SW9.8 kmh SW 13.6 mph21.9 kmh 30.26 in1024.7 mb 0.00 in0.0 mm 0.00 in0.0 mm 0.00 in0.0 mm
04:30 AM 54.7°F12.6°C 53.9°F12.2°C 97% 6.1 mph SW9.8 kmh SW 13.6 mph21.9 kmh 30.25 in1024.4 mb 0.00 in0.0 mm 0.00 in0.0 mm 0.00 in0.0 mm
04:20 AM 54.7°F12.6°C 53.9°F12.2°C 97% 6.1 mph SW9.8 kmh SW 13.6 mph21.9 kmh 30.25 in1024.4 mb 0.00 in0.0 mm 0.00 in0.0 mm 0.00 in0.0 mm
04:10 AM 54.7°F12.6°C 53.9°F12.2°C 97% 6.1 mph SW9.8 kmh SW 13.6 mph21.9 kmh 30.25 in1024.4 mb 0.00 in0.0 mm 0.00 in0.0 mm 0.00 in0.0 mm
04:00 AM 54.7°F12.6°C 53.9°F12.2°C 97% 6.1 mph SW9.8 kmh SW 13.6 mph21.9 kmh 30.25 in1024.4 mb 0.00 in0.0 mm 0.00 in0.0 mm 0.00 in0.0 mm
03:50 AM 54.7°F12.6°C 53.9°F12.2°C 97% 6.1 mph SW9.8 kmh SW 13.6 mph21.9 kmh 30.25 in1024.4 mb 0.00 in0.0 mm 0.00 in0.0 mm 0.00 in0.0 mm
03:40 AM 54.7°F12.6°C 53.9°F12.2°C 97% 6.1 mph SW9.8 kmh SW 13.6 mph21.9 kmh 30.25 in1024.4 mb 0.00 in0.0 mm 0.00 in0.0 mm 0.00 in0.0 mm
03:30 AM 54.7°F12.6°C 53.9°F12.2°C 97% 6.1 mph SW9.8 kmh SW 13.6 mph21.9 kmh 30.25 in1024.4 mb 0.00 in0.0 mm 0.00 in0.0 mm 0.00 in0.0 mm
03:20 AM 54.7°F12.6°C 53.9°F12.2°C 97% 6.1 mph SW9.8 kmh SW 13.6 mph21.9 kmh 30.25 in1024.4 mb 0.00 in0.0 mm 0.00 in0.0 mm 0.00 in0.0 mm
03:10 AM 54.7°F12.6°C 53.9°F12.2°C 97% 6.1 mph SW9.8 kmh SW 13.6 mph21.9 kmh 30.25 in1024.4 mb 0.00 in0.0 mm 0.00 in0.0 mm 0.00 in0.0 mm
03:00 AM 54.7°F12.6°C 53.9°F12.2°C 97% 6.1 mph SW9.8 kmh SW 13.6 mph21.9 kmh 30.25 in1024.4 mb 0.00 in0.0 mm 0.00 in0.0 mm 0.00 in0.0 mm
02:50 AM 54.7°F12.6°C 53.9°F12.2°C 97% 6.1 mph SW9.8 kmh SW 13.6 mph21.9 kmh 30.25 in1024.4 mb 0.00 in0.0 mm 0.00 in0.0 mm 0.00 in0.0 mm
02:40 AM 54.7°F12.6°C 53.9°F12.2°C 97% 6.1 mph SW9.8 kmh SW 13.6 mph21.9 kmh 30.25 in1024.4 mb 0.00 in0.0 mm 0.00 in0.0 mm 0.00 in0.0 mm
02:30 AM 54.7°F12.6°C 53.9°F12.2°C 97% 6.1 mph SW9.8 kmh SW 13.6 mph21.9 kmh 30.25 in1024.4 mb 0.00 in0.0 mm 0.00 in0.0 mm 0.00 in0.0 mm
02:20 AM 54.7°F12.6°C 53.9°F12.2°C 97% 6.1 mph SW9.8 kmh SW 13.6 mph21.9 kmh 30.25 in1024.4 mb 0.00 in0.0 mm 0.00 in0.0 mm 0.00 in0.0 mm
02:10 AM 54.7°F12.6°C 53.9°F12.2°C 97% 6.1 mph SW9.8 kmh SW 13.6 mph21.9 kmh 30.25 in1024.4 mb 0.00 in0.0 mm 0.00 in0.0 mm 0.00 in0.0 mm
02:00 AM 54.7°F12.6°C 53.9°F12.2°C 97% 6.1 mph SW9.8 kmh SW 13.6 mph21.9 kmh 30.25 in1024.4 mb 0.00 in0.0 mm 0.00 in0.0 mm 0.00 in0.0 mm
01:50 AM 54.7°F12.6°C 53.9°F12.2°C 97% 6.1 mph SW9.8 kmh SW 13.6 mph21.9 kmh 30.24 in1024.0 mb 0.00 in0.0 mm 0.00 in0.0 mm 0.00 in0.0 mm
01:40 AM 54.7°F12.6°C 53.9°F12.2°C 97% 6.1 mph SW9.8 kmh SW 13.6 mph21.9 kmh 30.24 in1024.0 mb 0.00 in0.0 mm 0.00 in0.0 mm 0.00 in0.0 mm
01:30 AM 54.7°F12.6°C 53.9°F12.2°C 97% 6.1 mph SW9.8 kmh SW 13.6 mph21.9 kmh 30.24 in1024.0 mb 0.00 in0.0 mm 0.00 in0.0 mm 0.00 in0.0 mm
01:20 AM 54.7°F12.6°C 53.9°F12.2°C 97% 6.1 mph SW9.8 kmh SW 13.6 mph21.9 kmh 30.24 in1024.0 mb 0.00 in0.0 mm 0.00 in0.0 mm 0.00 in0.0 mm
01:10 AM 54.7°F12.6°C 53.9°F12.2°C 97% 6.1 mph SW9.8 kmh SW 13.6 mph21.9 kmh 30.25 in1024.4 mb 0.00 in0.0 mm 0.00 in0.0 mm 0.00 in0.0 mm
01:00 AM 54.7°F12.6°C 53.9°F12.2°C 97% 6.1 mph SW9.8 kmh SW 13.6 mph21.9 kmh 30.25 in1024.4 mb 0.00 in0.0 mm 0.00 in0.0 mm 0.00 in0.0 mm
12:50 AM 54.7°F12.6°C 53.9°F12.2°C 97% 6.1 mph SW9.8 kmh SW 13.6 mph21.9 kmh 30.24 in1024.0 mb 0.00 in0.0 mm 0.00 in0.0 mm 0.00 in0.0 mm
12:40 AM 54.7°F12.6°C 53.9°F12.2°C 97% 6.1 mph SW9.8 kmh SW 13.6 mph21.9 kmh 30.24 in1024.0 mb 0.00 in0.0 mm 0.00 in0.0 mm 0.00 in0.0 mm
12:30 AM 54.7°F12.6°C 53.9°F12.2°C 97% 6.1 mph SW9.8 kmh SW 13.6 mph21.9 kmh 30.24 in1024.0 mb 0.00 in0.0 mm 0.00 in0.0 mm 0.00 in0.0 mm
12:20 AM 54.7°F12.6°C 53.9°F12.2°C 97% 6.1 mph SW9.8 kmh SW 13.6 mph21.9 kmh 30.24 in1024.0 mb 0.00 in0.0 mm 0.00 in0.0 mm 0.00 in0.0 mm
12:10 AM 54.7°F12.6°C 53.9°F12.2°C 97% 6.1 mph SW9.8 kmh SW 13.6 mph21.9 kmh 30.24 in1024.0 mb 0.00 in0.0 mm 0.00 in0.0 mm 0.00 in0.0 mm
12:00 AM 54.7°F12.6°C 53.9°F12.2°C 97% 6.1 mph SW9.8 kmh SW 13.6 mph21.9 kmh 30.24 in1024.0 mb 0.00 in0.0 mm 0.00 in0.0 mm 0.00 in0.0 mm